• Join FlightAware (Why Join?)
  • Login
  • US Flag 
08:58AM EDT


 

Airport Tracker/Info


-or-


 

Live Flight TrackerFlight Track Log ✈ N900WP ✈ 08-May-2013 ✈ KBBG - KPDK

Flight Track Log - Related Links

Times and Time Zones

All times are in EDT time to prevent confusion due to time zone crossing. See the N900WP flight status page for this flight to view local times or setup timezone preferences in your user account.

Time Position Orientation Groundspeed Altitude Reporting Facility
EDT Latitude Longitude Course Direction KTS MPH feet Rate Location/Type
04:00PM 36.5617 -93.1161 109° East 176 203 5,700  Level Memphis Center
04:01PM 36.5486 -93.0536 105° East 176 203 7,500 1,800 Climbing Memphis Center
04:02PM 36.5333 -92.9911 107° East 181 208 9,300 1,680 Climbing Memphis Center
04:03PM 36.5158 -92.9261 109° East 188 216 10,900 1,380 Climbing Memphis Center
04:04PM 36.3914 -92.6406 109° East  Level FlightAware Approximate
04:04PM 36.4983 -92.8608 108° East 193 222 12,100  Level Memphis Center
04:05PM 36.4789 -92.7856 108° East 200 230 13,400 1,260 Climbing Memphis Center
04:06PM 36.4556 -92.7100 111° Southeast 206 237 14,700 1,200 Climbing Memphis Center
04:07PM 36.4381 -92.6294 105° East 220 253 15,800 1,140 Climbing Memphis Center
04:08PM 36.4167 -92.5514 109° East 230 265 17,000 1,140 Climbing Memphis Center
04:09PM 36.3972 -92.4711 107° East 236 272 18,100 1,020 Climbing Memphis Center
04:10PM 36.3778 -92.3933 107° East 236 272 19,100 1,020 Climbing Memphis Center
04:11PM 36.3581 -92.3128 107° East 241 277 20,200 1,020 Climbing Memphis Center
04:12PM 36.3364 -92.2325 109° East 241 277 21,200 960 Climbing Memphis Center
04:13PM 36.3189 -92.1547 106° East 241 277 22,200 840 Climbing Memphis Center
04:14PM 36.2992 -92.0744 107° East 241 277 22,900 900 Climbing Memphis Center
04:15PM 36.2792 -91.9944 107° East 246 283 24,000 960 Climbing Memphis Center
04:16PM 36.2572 -91.9167 109° East 246 283 24,900 900 Climbing Memphis Center
04:18PM 36.2175 -91.7564 107° East 246 283 26,800 660 Climbing Memphis Center
04:19PM 36.1914 -91.6789 113° Southeast 246 283 27,000 60 Climbing Memphis Center
04:20PM 36.1692 -91.5883 107° East 253 291 27,000  Level Memphis Center
04:21PM 36.1431 -91.4931 109° East 272 313 27,000  Level Memphis Center
04:22PM 36.1189 -91.3925 107° East 286 329 27,000  Level Memphis Center
04:24PM 36.0661 -91.1889 108° East 308 354 27,000  Level Memphis Center
04:25PM 36.0356 -91.0886 111° Southeast 308 354 27,000  Level Memphis Center
04:26PM 36.0111 -90.9856 106° East 308 354 27,000  Level Memphis Center
04:27PM 35.9844 -90.8828 108° East 308 354 27,000  Level Memphis Center
04:28PM 35.9578 -90.7828 108° East 308 354 27,000  Level Memphis Center
04:29PM 35.9289 -90.6800 109° East 308 354 27,000  Level Memphis Center
04:30PM 35.9019 -90.5775 108° East 308 354 27,000  Level Memphis Center
04:31PM 35.8728 -90.4747 109° East 308 354 27,000  Level Memphis Center
04:32PM 35.8481 -90.3750 107° East 308 354 27,000  Level Memphis Center
04:33PM 35.8208 -90.2750 109° East 308 354 27,000  Level Memphis Center
04:34PM 35.7914 -90.1728 110° East 308 354 27,000  Level Memphis Center
04:35PM 35.7619 -90.0678 109° East 308 354 27,000  Level Memphis Center
04:36PM 35.7347 -89.9658 108° East 313 360 27,000  Level Memphis Center
04:37PM 35.7050 -89.8611 109° East 313 360 27,000  Level Memphis Center
04:38PM 35.6858 -89.7692 104° East 313 360 27,000  Level Memphis Center
04:39PM 35.6583 -89.6647 108° East 313 360 27,000  Level Memphis Center
04:40PM 35.6264 -89.5500 109° East 318 366 27,000  Level Memphis Center
04:41PM 35.5986 -89.4506 109° East 318 366 27,000  Level Memphis Center
04:42PM 35.5686 -89.3489 110° East 318 366 27,000  Level Memphis Center
04:43PM 35.5406 -89.2497 109° East 318 366 27,000  Level Memphis Center
04:44PM 35.5125 -89.1456 108° East 318 366 27,000  Level Memphis Center
04:45PM 35.4822 -89.0439 110° East 318 366 27,000  Level Memphis Center
04:46PM 35.4539 -88.9425 109° East 318 366 27,000  Level Memphis Center
04:47PM 35.4278 -88.8511 109° East 313 360 27,000  Level Memphis Center
04:48PM 35.3972 -88.7472 110° East 313 360 27,000  Level Memphis Center
04:50PM 35.3383 -88.5472 110° East 311 358 27,000  Level Memphis Center
04:51PM 35.3053 -88.4411 111° Southeast 311 358 27,000  Level Memphis Center
04:52PM 35.2744 -88.3375 110° East 311 358 27,000  Level Memphis Center
04:53PM 35.2458 -88.2367 109° East 311 358 27,000  Level Memphis Center
04:54PM 35.2169 -88.1358 109° East 311 358 27,000  Level Memphis Center
04:55PM 35.1878 -88.0347 109° East 311 358 27,000  Level Memphis Center
04:56PM 35.1567 -87.9317 110° East 311 358 27,000  Level Memphis Center
04:57PM 35.1322 -87.8486 110° East 311 358 27,000  Level Memphis Center
04:58PM 35.0942 -87.7253 111° Southeast 311 358 27,000  Level Memphis Center
04:59PM 35.0606 -87.6250 112° Southeast 311 358 27,000  Level Memphis Center
05:00PM 35.0333 -87.5217 108° East 311 358 27,000  Level Memphis Center
05:02PM 34.9486 -87.2317 110° East 325 374 27,000  Level Atlanta Center
05:03PM 34.9181 -87.1292 110° East 337 388 27,000  Level Atlanta Center
05:04PM 34.8850 -87.0267 111° Southeast 332 382 27,000  Level Atlanta Center
05:05PM 34.8539 -86.9269 111° Southeast 327 376 27,000  Level Atlanta Center
05:06PM 34.8231 -86.8244 110° East 322 371 27,000  Level Atlanta Center
05:07PM 34.7897 -86.7222 112° Southeast 322 371 27,000  Level Atlanta Center
05:08PM 34.7606 -86.6178 109° East 317 365 27,000  Level Atlanta Center
05:09PM 34.7294 -86.5181 111° Southeast 312 359 27,000  Level Atlanta Center
05:10PM 34.6958 -86.4161 112° Southeast 312 359 27,000  Level Atlanta Center
05:11PM 34.6644 -86.3167 111° Southeast 312 359 27,000  Level Atlanta Center
05:12PM 34.6350 -86.2150 109° East 312 359 27,000  Level Atlanta Center
05:13PM 34.5992 -86.1131 113° Southeast 312 359 27,000 -240 Level Atlanta Center
05:14PM 34.5694 -86.0114 110° East 312 359 26,600 -1,140 Descending Atlanta Center
05:15PM 34.5317 -85.8997 112° Southeast 322 371 24,800 -1,740 Descending Atlanta Center
05:16PM 34.4997 -85.8031 112° Southeast 336 387 23,200 -1,740 Descending Atlanta Center
05:17PM 34.4614 -85.6914 113° Southeast 342 394 21,400 -1,800 Descending Atlanta Center
05:18PM 34.4275 -85.5800 110° East 348 400 19,600 -1,800 Descending Atlanta Center
05:19PM 34.3953 -85.4736 110° East 348 400 17,800 -1,740 Descending Atlanta Center
05:20PM 34.3611 -85.3700 112° Southeast 342 394 16,200 -1,500 Descending Atlanta Center
05:21PM 34.3286 -85.2689 111° Southeast 334 384 14,900 -1,500 Descending Atlanta Center
05:22PM 34.2942 -85.1603 111° Southeast 329 379 13,200 -1,680 Descending Atlanta Center
05:23PM 34.2639 -85.0642 111° Southeast 308 354 11,600 -1,620 Descending Atlanta Center
05:24PM 34.2311 -84.9733 114° Southeast 294 338 10,000 -1,560 Descending Atlanta Center
05:25PM 34.2044 -84.8903 111° Southeast 287 330 8,500 -1,200 Descending Atlanta Center
05:26PM 34.1633 -84.8144 123° Southeast 269 310 7,600 -960 Descending Atlanta Center
05:27PM 34.1242 -84.7439 124° Southeast 260 299 6,600 -1,080 Descending Atlanta Center
05:28PM 34.0847 -84.6758 125° Southeast 249 287 5,500 -840 Descending Atlanta Center
05:29PM 34.0497 -84.6156 125° Southeast 226 260 5,000 -300 Descending Atlanta Center
05:30PM 34.0186 -84.5600 124° Southeast 220 253 5,000 -300 Level Atlanta Center
05:32PM 33.9500 -84.4500 127° Southeast 233 268 4,200 -660 Descending Atlanta TRACON
05:33PM 33.9000 -84.4000 140° Southeast 213 245 3,300 -960 Descending Atlanta TRACON
05:34PM 33.8667 -84.3667 140° Southeast 213 245 2,400 -960 Descending Atlanta TRACON
05:35PM 33.8500 -84.3167 112° Southeast 144 166 1,400 -960 Descending Atlanta TRACON
05:37PM 33.8667 -84.3000 118° Southeast  Level FlightAware Approximate
05:44PM 33.8756 -84.3020 118° Southeast  Level Estimated